sensor_id;sensor_type;location;lat;lon;timestamp;pressure;altitude;pressure_sealevel;temperature;humidity
9709;BME280;4893;42.024;23.098;2022-11-13T00:00:40;98217.91;;;4.88;100.00
9709;BME280;4893;42.024;23.098;2022-11-13T00:03:05;98222.16;;;4.89;100.00
9709;BME280;4893;42.024;23.098;2022-11-13T00:05:31;98222.84;;;4.91;100.00
9709;BME280;4893;42.024;23.098;2022-11-13T00:07:56;98227.28;;;4.89;100.00
9709;BME280;4893;42.024;23.098;2022-11-13T00:10:21;98223.66;;;4.92;100.00
9709;BME280;4893;42.024;23.098;2022-11-13T00:12:47;98219.13;;;4.95;100.00
9709;BME280;4893;42.024;23.098;2022-11-13T00:15:13;98221.00;;;4.93;100.00
9709;BME280;4893;42.024;23.098;2022-11-13T00:17:38;98223.50;;;4.82;100.00
9709;BME280;4893;42.024;23.098;2022-11-13T00:20:04;98195.56;;;4.65;100.00
9709;BME280;4893;42.024;23.098;2022-11-13T00:22:29;98225.13;;;4.83;100.00
9709;BME280;4893;42.024;23.098;2022-11-13T00:24:55;98208.50;;;4.64;100.00
9709;BME280;4893;42.024;23.098;2022-11-13T00:27:20;98215.13;;;4.55;100.00
9709;BME280;4893;42.024;23.098;2022-11-13T00:29:46;98211.41;;;4.59;100.00
9709;BME280;4893;42.024;23.098;2022-11-13T00:32:11;98208.97;;;4.45;100.00
9709;BME280;4893;42.024;23.098;2022-11-13T00:34:37;98193.97;;;4.39;100.00
9709;BME280;4893;42.024;23.098;2022-11-13T00:37:02;98208.88;;;4.34;100.00
9709;BME280;4893;42.024;23.098;2022-11-13T00:39:27;98180.63;;;4.09;100.00
9709;BME280;4893;42.024;23.098;2022-11-13T00:41:53;98214.34;;;4.42;100.00
9709;BME280;4893;42.024;23.098;2022-11-13T00:44:18;98192.38;;;4.49;100.00
9709;BME280;4893;42.024;23.098;2022-11-13T00:46:44;98200.28;;;4.71;100.00
9709;BME280;4893;42.024;23.098;2022-11-13T00:49:09;98208.06;;;4.82;100.00
9709;BME280;4893;42.024;23.098;2022-11-13T00:51:34;98212.25;;;4.83;100.00
9709;BME280;4893;42.024;23.098;2022-11-13T00:54:00;98213.63;;;4.76;100.00
9709;BME280;4893;42.024;23.098;2022-11-13T00:56:25;98205.84;;;4.65;100.00
9709;BME280;4893;42.024;23.098;2022-11-13T00:58:51;98199.88;;;4.65;100.00
9709;BME280;4893;42.024;23.098;2022-11-13T01:01:18;98206.03;;;4.62;100.00
9709;BME280;4893;42.024;23.098;2022-11-13T01:03:43;98205.50;;;4.34;100.00
9709;BME280;4893;42.024;23.098;2022-11-13T01:06:18;98199.13;;;4.39;100.00
9709;BME280;4893;42.024;23.098;2022-11-13T01:08:43;98201.59;;;4.41;100.00
9709;BME280;4893;42.024;23.098;2022-11-13T01:11:12;98204.75;;;4.32;100.00
9709;BME280;4893;42.024;23.098;2022-11-13T01:13:39;98204.66;;;4.33;100.00
9709;BME280;4893;42.024;23.098;2022-11-13T01:16:07;98210.59;;;4.46;100.00
9709;BME280;4893;42.024;23.098;2022-11-13T01:18:32;98211.72;;;4.55;100.00
9709;BME280;4893;42.024;23.098;2022-11-13T01:21:03;98211.25;;;4.37;100.00
9709;BME280;4893;42.024;23.098;2022-11-13T01:23:29;98211.69;;;4.31;100.00
9709;BME280;4893;42.024;23.098;2022-11-13T01:25:54;98200.53;;;4.43;100.00
9709;BME280;4893;42.024;23.098;2022-11-13T01:28:26;98190.69;;;4.37;100.00
9709;BME280;4893;42.024;23.098;2022-11-13T01:30:51;98199.13;;;4.39;100.00
9709;BME280;4893;42.024;23.098;2022-11-13T01:33:16;98196.53;;;4.39;100.00
9709;BME280;4893;42.024;23.098;2022-11-13T01:35:42;98190.78;;;4.36;100.00
9709;BME280;4893;42.024;23.098;2022-11-13T01:38:07;98202.91;;;4.34;100.00
9709;BME280;4893;42.024;23.098;2022-11-13T01:40:32;98194.47;;;4.32;100.00
9709;BME280;4893;42.024;23.098;2022-11-13T01:42:58;98197.16;;;4.30;100.00
9709;BME280;4893;42.024;23.098;2022-11-13T01:48:48;98184.44;;;4.16;100.00
9709;BME280;4893;42.024;23.098;2022-11-13T01:51:17;98198.00;;;4.18;100.00
9709;BME280;4893;42.024;23.098;2022-11-13T01:53:45;98206.84;;;4.14;100.00
9709;BME280;4893;42.024;23.098;2022-11-13T01:56:12;98204.25;;;4.14;100.00
9709;BME280;4893;42.024;23.098;2022-11-13T01:58:39;98198.81;;;4.06;100.00
9709;BME280;4893;42.024;23.098;2022-11-13T02:01:14;98204.16;;;4.15;100.00
9709;BME280;4893;42.024;23.098;2022-11-13T02:03:39;98201.19;;;4.09;100.00
9709;BME280;4893;42.024;23.098;2022-11-13T02:06:05;98207.97;;;4.22;100.00
9709;BME280;4893;42.024;23.098;2022-11-13T02:08:30;98217.53;;;4.08;100.00
9709;BME280;4893;42.024;23.098;2022-11-13T02:10:56;98209.63;;;4.11;100.00
9709;BME280;4893;42.024;23.098;2022-11-13T02:13:21;98213.72;;;4.13;100.00
9709;BME280;4893;42.024;23.098;2022-11-13T02:15:47;98195.84;;;3.99;100.00
9709;BME280;4893;42.024;23.098;2022-11-13T02:18:14;98214.56;;;4.14;100.00
9709;BME280;4893;42.024;23.098;2022-11-13T02:26:06;98207.34;;;3.94;100.00
9709;BME280;4893;42.024;23.098;2022-11-13T02:28:33;98210.94;;;3.91;100.00
9709;BME280;4893;42.024;23.098;2022-11-13T02:31:08;98205.72;;;3.93;100.00
9709;BME280;4893;42.024;23.098;2022-11-13T02:33:42;98204.28;;;3.89;100.00
9709;BME280;4893;42.024;23.098;2022-11-13T02:36:09;98200.97;;;3.87;100.00
9709;BME280;4893;42.024;23.098;2022-11-13T02:38:37;98209.09;;;3.81;100.00
9709;BME280;4893;42.024;23.098;2022-11-13T02:41:03;98150.63;;;3.47;100.00
9709;BME280;4893;42.024;23.098;2022-11-13T02:43:29;98196.53;;;3.64;100.00
9709;BME280;4893;42.024;23.098;2022-11-13T02:45:54;98189.03;;;3.61;100.00
9709;BME280;4893;42.024;23.098;2022-11-13T02:48:20;98204.75;;;3.69;100.00
9709;BME280;4893;42.024;23.098;2022-11-13T02:50:45;98188.19;;;3.60;100.00
9709;BME280;4893;42.024;23.098;2022-11-13T02:53:11;98204.44;;;3.73;100.00
9709;BME280;4893;42.024;23.098;2022-11-13T02:55:36;98212.28;;;3.72;100.00
9709;BME280;4893;42.024;23.098;2022-11-13T02:58:02;98201.16;;;3.71;100.00
9709;BME280;4893;42.024;23.098;2022-11-13T03:00:28;98205.88;;;3.52;100.00
9709;BME280;4893;42.024;23.098;2022-11-13T03:02:54;98209.16;;;3.54;100.00
9709;BME280;4893;42.024;23.098;2022-11-13T03:05:20;98203.50;;;3.62;100.00
9709;BME280;4893;42.024;23.098;2022-11-13T03:07:46;98205.19;;;3.63;100.00
9709;BME280;4893;42.024;23.098;2022-11-13T03:10:11;98195.38;;;3.55;100.00
9709;BME280;4893;42.024;23.098;2022-11-13T03:12:37;98200.75;;;3.65;100.00
9709;BME280;4893;42.024;23.098;2022-11-13T03:15:04;98214.72;;;3.61;100.00
9709;BME280;4893;42.024;23.098;2022-11-13T03:17:30;98195.59;;;3.52;100.00
9709;BME280;4893;42.024;23.098;2022-11-13T03:19:57;98210.22;;;3.64;100.00
9709;BME280;4893;42.024;23.098;2022-11-13T03:22:22;98219.75;;;3.50;100.00
9709;BME280;4893;42.024;23.098;2022-11-13T03:24:47;98211.63;;;3.56;100.00
9709;BME280;4893;42.024;23.098;2022-11-13T03:27:13;98216.34;;;3.62;100.00
9709;BME280;4893;42.024;23.098;2022-11-13T03:29:38;98211.22;;;3.62;100.00
9709;BME280;4893;42.024;23.098;2022-11-13T03:32:04;98223.34;;;3.60;100.00
9709;BME280;4893;42.024;23.098;2022-11-13T03:34:29;98191.38;;;3.39;100.00
9709;BME280;4893;42.024;23.098;2022-11-13T03:36:55;98213.56;;;3.52;100.00
9709;BME280;4893;42.024;23.098;2022-11-13T03:39:20;98223.53;;;3.57;100.00
9709;BME280;4893;42.024;23.098;2022-11-13T03:41:46;98231.09;;;3.46;100.00
9709;BME280;4893;42.024;23.098;2022-11-13T03:44:12;98228.25;;;3.50;100.00
9709;BME280;4893;42.024;23.098;2022-11-13T03:46:37;98202.13;;;3.31;100.00
9709;BME280;4893;42.024;23.098;2022-11-13T03:49:03;98230.91;;;3.49;100.00
9709;BME280;4893;42.024;23.098;2022-11-13T03:51:28;98229.19;;;3.49;100.00
9709;BME280;4893;42.024;23.098;2022-11-13T03:53:53;98233.69;;;3.46;100.00
9709;BME280;4893;42.024;23.098;2022-11-13T03:56:19;98238.72;;;3.47;100.00
9709;BME280;4893;42.024;23.098;2022-11-13T03:58:46;98234.63;;;3.45;100.00
9709;BME280;4893;42.024;23.098;2022-11-13T04:01:16;98231.31;;;3.43;100.00
9709;BME280;4893;42.024;23.098;2022-11-13T04:03:44;98227.47;;;3.36;100.00
9709;BME280;4893;42.024;23.098;2022-11-13T04:06:10;98227.69;;;3.33;100.00
9709;BME280;4893;42.024;23.098;2022-11-13T04:08:35;98234.66;;;3.31;100.00
9709;BME280;4893;42.024;23.098;2022-11-13T04:11:08;98215.34;;;2.99;100.00
9709;BME280;4893;42.024;23.098;2022-11-13T04:13:34;98242.47;;;3.03;100.00
9709;BME280;4893;42.024;23.098;2022-11-13T04:15:59;98244.78;;;3.20;100.00
9709;BME280;4893;42.024;23.098;2022-11-13T04:18:25;98241.25;;;3.35;100.00
9709;BME280;4893;42.024;23.098;2022-11-13T04:20:50;98233.16;;;3.41;100.00
9709;BME280;4893;42.024;23.098;2022-11-13T04:23:15;98219.19;;;3.32;100.00
9709;BME280;4893;42.024;23.098;2022-11-13T04:25:42;98228.59;;;3.19;100.00
9709;BME280;4893;42.024;23.098;2022-11-13T04:28:08;98238.44;;;2.99;100.00
9709;BME280;4893;42.024;23.098;2022-11-13T04:30:35;98213.91;;;2.95;100.00
9709;BME280;4893;42.024;23.098;2022-11-13T04:33:01;98236.75;;;3.12;100.00
9709;BME280;4893;42.024;23.098;2022-11-13T04:35:26;98235.22;;;2.95;100.00
9709;BME280;4893;42.024;23.098;2022-11-13T04:37:52;98232.81;;;2.79;100.00
9709;BME280;4893;42.024;23.098;2022-11-13T04:40:17;98237.88;;;2.67;100.00
9709;BME280;4893;42.024;23.098;2022-11-13T04:42:42;98230.28;;;2.65;100.00
9709;BME280;4893;42.024;23.098;2022-11-13T04:45:15;98234.44;;;2.80;100.00
9709;BME280;4893;42.024;23.098;2022-11-13T04:47:41;98231.31;;;2.90;100.00
9709;BME280;4893;42.024;23.098;2022-11-13T04:50:06;98219.69;;;2.84;100.00
9709;BME280;4893;42.024;23.098;2022-11-13T04:52:32;98230.03;;;2.97;100.00
9709;BME280;4893;42.024;23.098;2022-11-13T04:54:57;98235.50;;;3.05;100.00
9709;BME280;4893;42.024;23.098;2022-11-13T04:57:23;98236.94;;;3.09;100.00
9709;BME280;4893;42.024;23.098;2022-11-13T04:59:48;98227.91;;;3.03;100.00
9709;BME280;4893;42.024;23.098;2022-11-13T05:02:14;98230.38;;;3.05;100.00
9709;BME280;4893;42.024;23.098;2022-11-13T05:04:39;98246.28;;;3.10;100.00
9709;BME280;4893;42.024;23.098;2022-11-13T05:07:05;98249.03;;;3.07;100.00
9709;BME280;4893;42.024;23.098;2022-11-13T05:09:30;98243.09;;;3.06;100.00
9709;BME280;4893;42.024;23.098;2022-11-13T05:11:55;98248.25;;;2.92;100.00
9709;BME280;4893;42.024;23.098;2022-11-13T05:14:21;98257.88;;;3.03;100.00
9709;BME280;4893;42.024;23.098;2022-11-13T05:16:46;98253.97;;;3.10;100.00
9709;BME280;4893;42.024;23.098;2022-11-13T05:19:14;98247.75;;;3.14;100.00
9709;BME280;4893;42.024;23.098;2022-11-13T05:21:46;98237.88;;;3.08;100.00
9709;BME280;4893;42.024;23.098;2022-11-13T05:24:12;98255.25;;;3.17;100.00
9709;BME280;4893;42.024;23.098;2022-11-13T05:26:38;98260.78;;;3.11;100.00
9709;BME280;4893;42.024;23.098;2022-11-13T05:29:04;98265.50;;;3.17;100.00
9709;BME280;4893;42.024;23.098;2022-11-13T05:31:30;98270.09;;;3.26;100.00
9709;BME280;4893;42.024;23.098;2022-11-13T05:33:55;98277.59;;;3.29;100.00
9709;BME280;4893;42.024;23.098;2022-11-13T05:36:21;98279.97;;;3.32;100.00
9709;BME280;4893;42.024;23.098;2022-11-13T05:38:46;98279.84;;;3.33;100.00
9709;BME280;4893;42.024;23.098;2022-11-13T05:41:17;98294.41;;;3.47;100.00
9709;BME280;4893;42.024;23.098;2022-11-13T05:43:44;98285.56;;;3.51;100.00
9709;BME280;4893;42.024;23.098;2022-11-13T05:46:14;98281.22;;;3.39;100.00
9709;BME280;4893;42.024;23.098;2022-11-13T05:48:41;98285.91;;;3.59;100.00
9709;BME280;4893;42.024;23.098;2022-11-13T05:51:24;98286.44;;;3.64;100.00
9709;BME280;4893;42.024;23.098;2022-11-13T05:53:52;98273.69;;;3.62;100.00
9709;BME280;4893;42.024;23.098;2022-11-13T05:56:25;98286.34;;;3.78;100.00
9709;BME280;4893;42.024;23.098;2022-11-13T05:58:52;98288.56;;;3.84;100.00
9709;BME280;4893;42.024;23.098;2022-11-13T06:01:19;98293.28;;;3.90;100.00
9709;BME280;4893;42.024;23.098;2022-11-13T06:03:45;98296.59;;;3.92;100.00
9709;BME280;4893;42.024;23.098;2022-11-13T06:06:16;98295.75;;;4.04;100.00
9709;BME280;4893;42.024;23.098;2022-11-13T06:08:42;98277.44;;;3.96;100.00
9709;BME280;4893;42.024;23.098;2022-11-13T06:11:19;98294.44;;;4.11;100.00
9709;BME280;4893;42.024;23.098;2022-11-13T06:13:46;98308.34;;;4.21;100.00
9709;BME280;4893;42.024;23.098;2022-11-13T06:16:18;98299.06;;;4.18;100.00
9709;BME280;4893;42.024;23.098;2022-11-13T06:18:44;98304.41;;;4.28;100.00
9709;BME280;4893;42.024;23.098;2022-11-13T06:21:13;98309.66;;;4.14;100.00
9709;BME280;4893;42.024;23.098;2022-11-13T06:23:39;98299.47;;;4.00;100.00
9709;BME280;4893;42.024;23.098;2022-11-13T06:26:15;98317.38;;;4.14;100.00
9709;BME280;4893;42.024;23.098;2022-11-13T06:28:40;98317.78;;;3.95;100.00
9709;BME280;4893;42.024;23.098;2022-11-13T06:31:23;98321.25;;;4.07;100.00
9709;BME280;4893;42.024;23.098;2022-11-13T06:33:49;98322.56;;;4.39;100.00
9709;BME280;4893;42.024;23.098;2022-11-13T06:36:17;98330.16;;;4.66;100.00
9709;BME280;4893;42.024;23.098;2022-11-13T06:38:43;98319.84;;;4.78;100.00
9709;BME280;4893;42.024;23.098;2022-11-13T06:41:11;98326.69;;;5.15;100.00
9709;BME280;4893;42.024;23.098;2022-11-13T06:43:37;98328.06;;;6.37;100.00
9709;BME280;4893;42.024;23.098;2022-11-13T06:46:09;98310.56;;;7.51;100.00
9709;BME280;4893;42.024;23.098;2022-11-13T06:48:35;98341.94;;;8.41;100.00
9709;BME280;4893;42.024;23.098;2022-11-13T06:51:03;98340.59;;;9.96;100.00
9709;BME280;4893;42.024;23.098;2022-11-13T06:53:29;98341.84;;;10.95;100.00
9709;BME280;4893;42.024;23.098;2022-11-13T06:55:55;98339.41;;;11.75;100.00
9709;BME280;4893;42.024;23.098;2022-11-13T06:58:20;98347.22;;;12.45;100.00
9709;BME280;4893;42.024;23.098;2022-11-13T07:00:45;98347.69;;;13.10;100.00
9709;BME280;4893;42.024;23.098;2022-11-13T07:03:25;98344.28;;;13.67;93.09
9709;BME280;4893;42.024;23.098;2022-11-13T07:05:51;98337.72;;;14.29;82.04
9709;BME280;4893;42.024;23.098;2022-11-13T07:08:17;98344.53;;;14.86;72.06
9709;BME280;4893;42.024;23.098;2022-11-13T07:10:43;98349.13;;;13.12;76.62
9709;BME280;4893;42.024;23.098;2022-11-13T07:13:32;98348.38;;;13.61;79.13
9709;BME280;4893;42.024;23.098;2022-11-13T07:16:02;98351.47;;;11.49;92.02
9709;BME280;4893;42.024;23.098;2022-11-13T07:18:28;98348.72;;;12.30;92.60
9709;BME280;4893;42.024;23.098;2022-11-13T07:20:54;98351.00;;;13.69;82.08
9709;BME280;4893;42.024;23.098;2022-11-13T07:23:20;98331.63;;;13.96;74.10
9709;BME280;4893;42.024;23.098;2022-11-13T07:25:45;98348.47;;;14.74;68.62
9709;BME280;4893;42.024;23.098;2022-11-13T07:28:11;98338.66;;;13.87;72.92
9709;BME280;4893;42.024;23.098;2022-11-13T07:30:36;98340.28;;;13.97;72.43
9709;BME280;4893;42.024;23.098;2022-11-13T07:33:02;98341.44;;;15.37;66.61
9709;BME280;4893;42.024;23.098;2022-11-13T07:35:28;98321.91;;;16.09;60.40
9709;BME280;4893;42.024;23.098;2022-11-13T07:37:55;98333.38;;;16.90;56.94
9709;BME280;4893;42.024;23.098;2022-11-13T07:40:20;98329.94;;;17.48;56.16
9709;BME280;4893;42.024;23.098;2022-11-13T07:42:46;98321.94;;;18.13;53.36
9709;BME280;4893;42.024;23.098;2022-11-13T07:45:11;98318.88;;;18.30;52.09
9709;BME280;4893;42.024;23.098;2022-11-13T07:47:37;98321.31;;;18.74;51.29
9709;BME280;4893;42.024;23.098;2022-11-13T07:50:03;98309.78;;;19.43;49.21
9709;BME280;4893;42.024;23.098;2022-11-13T07:52:28;98312.88;;;19.53;48.54
9709;BME280;4893;42.024;23.098;2022-11-13T07:54:53;98307.16;;;18.54;50.37
9709;BME280;4893;42.024;23.098;2022-11-13T07:57:19;98296.97;;;18.23;52.22
9709;BME280;4893;42.024;23.098;2022-11-13T07:59:47;98315.28;;;19.48;50.21
9709;BME280;4893;42.024;23.098;2022-11-13T08:02:14;98315.31;;;18.86;49.25
9709;BME280;4893;42.024;23.098;2022-11-13T08:04:40;98310.28;;;16.26;57.14
9709;BME280;4893;42.024;23.098;2022-11-13T08:07:06;98281.53;;;14.49;68.41
9709;BME280;4893;42.024;23.098;2022-11-13T08:09:32;98312.91;;;14.33;75.35
9709;BME280;4893;42.024;23.098;2022-11-13T08:11:58;98307.00;;;14.15;80.47
9709;BME280;4893;42.024;23.098;2022-11-13T08:14:23;98310.59;;;14.54;78.34
9709;BME280;4893;42.024;23.098;2022-11-13T08:16:48;98296.84;;;14.60;76.10
9709;BME280;4893;42.024;23.098;2022-11-13T08:19:14;98305.78;;;14.89;72.32
9709;BME280;4893;42.024;23.098;2022-11-13T08:21:39;98302.47;;;15.03;71.02
9709;BME280;4893;42.024;23.098;2022-11-13T08:24:05;98301.94;;;15.55;71.20
9709;BME280;4893;42.024;23.098;2022-11-13T08:26:30;98301.34;;;17.74;60.19
9709;BME280;4893;42.024;23.098;2022-11-13T08:28:56;98285.50;;;18.52;54.18
9709;BME280;4893;42.024;23.098;2022-11-13T08:31:21;98283.13;;;17.08;56.56
9709;BME280;4893;42.024;23.098;2022-11-13T08:33:46;98297.53;;;17.26;58.86
9709;BME280;4893;42.024;23.098;2022-11-13T08:36:12;98299.63;;;18.44;56.67
9709;BME280;4893;42.024;23.098;2022-11-13T08:38:37;98303.81;;;17.61;54.51
9709;BME280;4893;42.024;23.098;2022-11-13T08:41:04;98297.78;;;17.17;58.46
9709;BME280;4893;42.024;23.098;2022-11-13T08:43:34;98303.09;;;16.65;59.53
9709;BME280;4893;42.024;23.098;2022-11-13T08:46:00;98287.22;;;15.15;70.69
9709;BME280;4893;42.024;23.098;2022-11-13T08:48:27;98300.38;;;16.58;64.89
9709;BME280;4893;42.024;23.098;2022-11-13T08:50:54;98295.66;;;17.56;60.29
9709;BME280;4893;42.024;23.098;2022-11-13T08:53:20;98292.75;;;18.50;56.20
9709;BME280;4893;42.024;23.098;2022-11-13T08:55:46;98299.78;;;17.00;60.02
9709;BME280;4893;42.024;23.098;2022-11-13T08:58:13;98293.25;;;16.07;67.22
9709;BME280;4893;42.024;23.098;2022-11-13T09:00:39;98290.56;;;15.93;68.16
9709;BME280;4893;42.024;23.098;2022-11-13T09:03:05;98297.94;;;16.34;71.83
9709;BME280;4893;42.024;23.098;2022-11-13T09:05:30;98299.75;;;16.56;69.21
9709;BME280;4893;42.024;23.098;2022-11-13T09:07:58;98293.31;;;17.82;62.20
9709;BME280;4893;42.024;23.098;2022-11-13T09:10:24;98266.69;;;16.10;68.99
9709;BME280;4893;42.024;23.098;2022-11-13T09:13:04;98262.34;;;16.40;69.69
9709;BME280;4893;42.024;23.098;2022-11-13T09:15:31;98280.19;;;16.22;69.23
9709;BME280;4893;42.024;23.098;2022-11-13T09:17:58;98279.13;;;15.63;75.86
9709;BME280;4893;42.024;23.098;2022-11-13T09:20:24;98276.53;;;15.63;76.52
9709;BME280;4893;42.024;23.098;2022-11-13T09:22:55;98214.78;;;17.01;68.80
9709;BME280;4893;42.024;23.098;2022-11-13T09:25:34;98274.53;;;19.16;58.39
9709;BME280;4893;42.024;23.098;2022-11-13T09:28:01;98276.94;;;19.11;56.21
9709;BME280;4893;42.024;23.098;2022-11-13T09:30:28;98273.59;;;19.24;55.00
9709;BME280;4893;42.024;23.098;2022-11-13T09:33:00;98272.88;;;20.23;51.74
9709;BME280;4893;42.024;23.098;2022-11-13T09:35:26;98269.72;;;19.74;52.96
9709;BME280;4893;42.024;23.098;2022-11-13T09:38:03;98261.56;;;19.56;53.38
9709;BME280;4893;42.024;23.098;2022-11-13T09:40:33;98269.63;;;20.27;51.45
9709;BME280;4893;42.024;23.098;2022-11-13T09:43:00;98258.13;;;19.14;53.09
9709;BME280;4893;42.024;23.098;2022-11-13T09:45:27;98260.19;;;18.78;56.83
9709;BME280;4893;42.024;23.098;2022-11-13T09:51:26;98246.84;;;14.63;89.08
9709;BME280;4893;42.024;23.098;2022-11-13T09:53:52;98232.00;;;15.02;87.16
9709;BME280;4893;42.024;23.098;2022-11-13T09:56:26;98109.59;;;13.88;90.24
9709;BME280;4893;42.024;23.098;2022-11-13T10:01:35;98227.28;;;14.35;96.25
9709;BME280;4893;42.024;23.098;2022-11-13T10:04:10;98219.22;;;14.68;94.79
9709;BME280;4893;42.024;23.098;2022-11-13T10:06:58;98219.47;;;14.27;95.62
9709;BME280;4893;42.024;23.098;2022-11-13T10:09:37;98220.28;;;14.27;98.12
9709;BME280;4893;42.024;23.098;2022-11-13T10:12:13;98216.44;;;14.62;94.69
9709;BME280;4893;42.024;23.098;2022-11-13T10:14:43;98195.22;;;14.57;94.33
9709;BME280;4893;42.024;23.098;2022-11-13T10:17:34;98204.06;;;14.24;97.34
9709;BME280;4893;42.024;23.098;2022-11-13T10:20:06;98205.09;;;14.07;100.00
9709;BME280;4893;42.024;23.098;2022-11-13T10:28:08;98192.69;;;14.17;99.78
9709;BME280;4893;42.024;23.098;2022-11-13T10:30:35;98196.25;;;14.16;98.04
9709;BME280;4893;42.024;23.098;2022-11-13T10:33:04;98191.69;;;14.26;99.76
9709;BME280;4893;42.024;23.098;2022-11-13T10:38:34;98182.41;;;14.15;99.15
9709;BME280;4893;42.024;23.098;2022-11-13T10:41:11;98180.94;;;13.88;100.00
9709;BME280;4893;42.024;23.098;2022-11-13T10:43:49;98175.56;;;13.82;100.00
9709;BME280;4893;42.024;23.098;2022-11-13T10:46:27;98166.91;;;13.65;100.00
9709;BME280;4893;42.024;23.098;2022-11-13T10:48:58;98146.69;;;13.59;100.00
9709;BME280;4893;42.024;23.098;2022-11-13T10:51:34;98158.75;;;13.68;100.00
9709;BME280;4893;42.024;23.098;2022-11-13T10:54:19;98157.63;;;13.71;100.00
9709;BME280;4893;42.024;23.098;2022-11-13T10:56:59;98128.59;;;13.58;100.00
9709;BME280;4893;42.024;23.098;2022-11-13T10:59:25;98147.81;;;13.89;100.00
9709;BME280;4893;42.024;23.098;2022-11-13T11:04:35;98141.38;;;14.16;98.85
9709;BME280;4893;42.024;23.098;2022-11-13T11:07:13;98137.63;;;14.18;97.92
9709;BME280;4893;42.024;23.098;2022-11-13T11:09:39;98127.25;;;13.94;97.52
9709;BME280;4893;42.024;23.098;2022-11-13T11:12:13;98128.34;;;14.08;96.92
9709;BME280;4893;42.024;23.098;2022-11-13T11:18:03;98123.06;;;14.24;94.26
9709;BME280;4893;42.024;23.098;2022-11-13T11:20:57;98109.38;;;14.14;94.88
9709;BME280;4893;42.024;23.098;2022-11-13T11:31:52;98104.94;;;14.69;88.56
9709;BME280;4893;42.024;23.098;2022-11-13T11:34:53;98103.00;;;14.63;87.97
9709;BME280;4893;42.024;23.098;2022-11-13T11:37:35;98105.53;;;14.79;84.61
9709;BME280;4893;42.024;23.098;2022-11-13T11:40:29;98103.41;;;14.82;83.63
9709;BME280;4893;42.024;23.098;2022-11-13T11:43:40;98108.16;;;14.79;82.94
9709;BME280;4893;42.024;23.098;2022-11-13T11:46:14;98096.13;;;14.70;83.63
9709;BME280;4893;42.024;23.098;2022-11-13T11:48:44;98088.59;;;14.75;82.06
9709;BME280;4893;42.024;23.098;2022-11-13T11:51:17;98096.13;;;14.70;83.77
9709;BME280;4893;42.024;23.098;2022-11-13T11:56:52;98064.88;;;14.76;78.73
9709;BME280;4893;42.024;23.098;2022-11-13T11:59:45;98086.88;;;14.82;81.26
9709;BME280;4893;42.024;23.098;2022-11-13T12:24:27;98052.31;;;14.72;82.13
9709;BME280;4893;42.024;23.098;2022-11-13T12:35:17;98038.25;;;14.73;81.63
9709;BME280;4893;42.024;23.098;2022-11-13T12:43:26;98035.47;;;14.97;78.58
9709;BME280;4893;42.024;23.098;2022-11-13T12:46:07;98019.63;;;14.90;81.41
9709;BME280;4893;42.024;23.098;2022-11-13T12:48:36;98033.47;;;14.99;79.98
9709;BME280;4893;42.024;23.098;2022-11-13T12:51:14;98029.47;;;14.88;82.70
9709;BME280;4893;42.024;23.098;2022-11-13T12:53:49;98029.28;;;14.90;81.19
9709;BME280;4893;42.024;23.098;2022-11-13T13:01:27;98026.03;;;15.10;79.41
9709;BME280;4893;42.024;23.098;2022-11-13T13:09:55;98006.03;;;15.32;76.10
9709;BME280;4893;42.024;23.098;2022-11-13T13:12:48;98019.72;;;15.42;74.45
9709;BME280;4893;42.024;23.098;2022-11-13T13:15:56;98015.78;;;15.46;75.75
9709;BME280;4893;42.024;23.098;2022-11-13T13:18:26;98010.75;;;15.37;79.25
9709;BME280;4893;42.024;23.098;2022-11-13T13:23:29;98002.59;;;15.54;75.43
9709;BME280;4893;42.024;23.098;2022-11-13T13:26:25;98015.13;;;15.44;74.18
9709;BME280;4893;42.024;23.098;2022-11-13T13:31:49;97990.38;;;15.47;72.59
9709;BME280;4893;42.024;23.098;2022-11-13T13:37:13;98004.78;;;15.65;71.51
9709;BME280;4893;42.024;23.098;2022-11-13T13:43:09;98005.41;;;15.67;72.53
9709;BME280;4893;42.024;23.098;2022-11-13T13:46:14;98000.78;;;15.55;74.70
9709;BME280;4893;42.024;23.098;2022-11-13T13:48:48;98003.03;;;15.43;75.98
9709;BME280;4893;42.024;23.098;2022-11-13T13:54:04;97999.25;;;15.23;80.82
9709;BME280;4893;42.024;23.098;2022-11-13T13:56:31;98006.19;;;15.16;83.59
9709;BME280;4893;42.024;23.098;2022-11-13T13:58:58;98004.63;;;15.07;84.89
9709;BME280;4893;42.024;23.098;2022-11-13T14:01:27;98010.34;;;15.10;81.22
9709;BME280;4893;42.024;23.098;2022-11-13T14:06:58;98003.19;;;14.82;88.29
9709;BME280;4893;42.024;23.098;2022-11-13T14:09:26;98004.31;;;14.65;90.94
9709;BME280;4893;42.024;23.098;2022-11-13T14:14:56;98001.72;;;14.34;96.25
9709;BME280;4893;42.024;23.098;2022-11-13T14:17:23;97996.97;;;14.22;96.57
9709;BME280;4893;42.024;23.098;2022-11-13T14:20:02;97988.13;;;14.00;99.44
9709;BME280;4893;42.024;23.098;2022-11-13T14:22:27;97994.03;;;13.94;100.00
9709;BME280;4893;42.024;23.098;2022-11-13T14:24:59;97994.56;;;13.81;100.00
9709;BME280;4893;42.024;23.098;2022-11-13T14:27:26;97992.00;;;13.65;100.00
9709;BME280;4893;42.024;23.098;2022-11-13T14:30:04;97988.59;;;13.49;100.00
9709;BME280;4893;42.024;23.098;2022-11-13T14:32:38;97974.00;;;13.24;100.00
9709;BME280;4893;42.024;23.098;2022-11-13T14:35:04;97989.81;;;13.22;100.00
9709;BME280;4893;42.024;23.098;2022-11-13T14:37:34;97983.63;;;13.15;100.00
9709;BME280;4893;42.024;23.098;2022-11-13T14:43:04;97986.53;;;12.96;100.00
9709;BME280;4893;42.024;23.098;2022-11-13T14:45:38;97988.47;;;12.78;100.00
9709;BME280;4893;42.024;23.098;2022-11-13T14:48:27;97984.25;;;12.69;100.00
9709;BME280;4893;42.024;23.098;2022-11-13T14:50:56;97985.38;;;12.67;100.00
9709;BME280;4893;42.024;23.098;2022-11-13T14:53:37;97983.75;;;12.66;100.00
9709;BME280;4893;42.024;23.098;2022-11-13T14:56:05;97998.72;;;12.55;100.00
9709;BME280;4893;42.024;23.098;2022-11-13T15:01:17;97985.66;;;12.39;100.00
9709;BME280;4893;42.024;23.098;2022-11-13T15:03:44;97984.81;;;12.31;100.00
9709;BME280;4893;42.024;23.098;2022-11-13T15:06:23;97986.75;;;12.21;100.00
9709;BME280;4893;42.024;23.098;2022-11-13T15:08:53;97986.22;;;12.09;100.00
9709;BME280;4893;42.024;23.098;2022-11-13T15:11:20;97982.47;;;12.04;100.00
9709;BME280;4893;42.024;23.098;2022-11-13T15:13:46;97988.56;;;11.87;100.00